createdAt,value
2017-10-18T00:00:58.946Z,81.20
2017-10-18T00:03:26.443Z,80.90
2017-10-18T00:05:54.731Z,82.20
2017-10-18T00:08:22.931Z,82.10
2017-10-18T00:10:51.232Z,82.80
2017-10-18T00:13:18.736Z,83.60
2017-10-18T00:15:46.271Z,82.80
2017-10-18T00:18:13.770Z,83.40
2017-10-18T00:20:42.081Z,83.60
2017-10-18T00:23:09.615Z,83.60
2017-10-18T00:25:37.886Z,83.80
2017-10-18T00:28:05.420Z,83.80
2017-10-18T00:30:32.919Z,83.20
2017-10-18T00:33:01.219Z,84.10
2017-10-18T00:35:28.736Z,84.00
2017-10-18T00:37:56.263Z,83.30
2017-10-18T00:40:23.767Z,84.10
2017-10-18T00:42:51.304Z,83.10
2017-10-18T00:45:18.823Z,83.40
2017-10-18T00:47:46.353Z,82.70
2017-10-18T00:50:13.863Z,82.50
2017-10-18T00:52:41.401Z,82.40
2017-10-18T00:55:08.919Z,82.70
2017-10-18T00:57:37.213Z,83.80
2017-10-18T01:00:04.732Z,83.80
2017-10-18T01:02:32.262Z,83.60
2017-10-18T01:04:59.775Z,83.50
2017-10-18T01:07:28.079Z,83.90
2017-10-18T01:09:55.599Z,84.00
2017-10-18T01:12:23.896Z,85.10
2017-10-18T01:14:51.412Z,84.30
2017-10-18T01:17:18.950Z,84.20
2017-10-18T01:19:46.467Z,83.70
2017-10-18T01:22:14.013Z,82.80
2017-10-18T01:24:42.290Z,83.00
2017-10-18T01:27:09.810Z,82.70
2017-10-18T01:29:37.311Z,82.80
2017-10-18T01:32:05.835Z,82.70
2017-10-18T01:34:33.356Z,82.60
2017-10-18T01:37:01.651Z,82.70
2017-10-18T01:39:29.162Z,82.60
2017-10-18T01:41:56.715Z,83.20
2017-10-18T01:44:24.235Z,83.40
2017-10-18T01:46:51.772Z,83.50
2017-10-18T01:49:20.055Z,83.20
2017-10-18T01:51:47.588Z,83.20
2017-10-18T01:54:15.090Z,83.10
2017-10-18T01:56:42.622Z,83.30
2017-10-18T01:59:10.898Z,83.00
2017-10-18T02:01:39.203Z,82.50
2017-10-18T02:04:06.719Z,82.50
2017-10-18T02:06:34.251Z,82.10
2017-10-18T02:09:01.768Z,81.90
2017-10-18T02:11:29.308Z,81.60
2017-10-18T02:13:57.584Z,81.10
2017-10-18T02:16:25.878Z,81.20
2017-10-18T02:18:53.393Z,81.10
2017-10-18T02:21:20.966Z,81.40
2017-10-18T02:23:48.484Z,81.10
2017-10-18T02:26:16.024Z,81.20
2017-10-18T02:28:43.532Z,81.20
2017-10-18T02:31:11.072Z,81.50
2017-10-18T02:33:38.589Z,82.10
2017-10-18T02:36:06.132Z,83.10
2017-10-18T02:38:33.640Z,83.00
2017-10-18T02:41:01.176Z,83.00
2017-10-18T02:43:28.688Z,83.50
2017-10-18T02:45:56.213Z,85.00
2017-10-18T02:48:23.725Z,85.00
2017-10-18T02:50:52.031Z,84.40
2017-10-18T02:53:19.535Z,84.40
2017-10-18T02:55:47.067Z,85.00
2017-10-18T02:58:14.561Z,84.90
2017-10-18T03:00:42.074Z,84.80
2017-10-18T03:03:09.572Z,84.50
2017-10-18T03:05:37.094Z,84.50
2017-10-18T03:08:04.586Z,84.10
2017-10-18T03:10:32.106Z,83.60
2017-10-18T03:12:59.614Z,83.30
2017-10-18T03:15:27.150Z,83.30
2017-10-18T03:17:54.914Z,83.20
2017-10-18T03:20:23.201Z,82.90
2017-10-18T03:22:50.697Z,82.90
2017-10-18T03:25:18.218Z,82.70
2017-10-18T03:27:45.710Z,82.80
2017-10-18T03:30:13.995Z,82.00
2017-10-18T03:32:41.490Z,82.00
2017-10-18T03:35:09.002Z,82.00
2017-10-18T03:37:37.261Z,82.00
2017-10-18T03:40:04.782Z,81.90
2017-10-18T03:42:32.273Z,82.30
2017-10-18T03:44:59.785Z,82.30
2017-10-18T03:47:27.274Z,81.90
2017-10-18T03:49:54.939Z,81.70
2017-10-18T03:52:22.446Z,81.80
2017-10-18T03:54:49.957Z,82.40
2017-10-18T03:57:17.450Z,82.70
2017-10-18T03:59:45.737Z,84.00
2017-10-18T04:02:13.238Z,83.90
2017-10-18T04:04:40.750Z,83.60
2017-10-18T04:07:08.241Z,83.60
2017-10-18T04:09:35.774Z,83.80
2017-10-18T04:12:03.279Z,83.30
2017-10-18T04:14:30.790Z,83.30
2017-10-18T04:16:58.281Z,83.00
2017-10-18T04:19:25.813Z,83.60
2017-10-18T04:21:53.309Z,83.40
2017-10-18T04:24:20.822Z,83.10
2017-10-18T04:26:48.313Z,83.60
2017-10-18T04:29:15.839Z,84.20
2017-10-18T04:31:43.330Z,84.30
2017-10-18T04:34:10.872Z,83.90
2017-10-18T04:36:38.362Z,83.90
2017-10-18T04:39:05.893Z,83.80
2017-10-18T04:41:33.385Z,83.50
2017-10-18T04:44:00.874Z,83.60
2017-10-18T04:46:29.158Z,83.80
2017-10-18T04:48:56.650Z,83.80
2017-10-18T04:51:24.161Z,83.90
2017-10-18T04:53:52.428Z,83.80
2017-10-18T04:56:19.938Z,83.80
2017-10-18T04:58:47.430Z,83.70
2017-10-18T05:01:14.950Z,83.90
2017-10-18T05:03:42.443Z,83.90
2017-10-18T05:06:09.957Z,83.80
2017-10-18T05:08:38.302Z,83.80
2017-10-18T05:11:06.593Z,83.50
2017-10-18T05:13:34.847Z,83.80
2017-10-18T05:16:03.130Z,83.90
2017-10-18T05:18:31.385Z,83.30
2017-10-18T05:20:58.918Z,83.30
2017-10-18T05:23:26.410Z,83.60
2017-10-18T05:25:53.925Z,83.70
2017-10-18T05:28:21.423Z,83.70
2017-10-18T05:30:48.938Z,83.60
2017-10-18T05:33:16.431Z,83.30
2017-10-18T05:35:43.947Z,83.10
2017-10-18T05:38:11.446Z,83.10
2017-10-18T05:40:38.958Z,83.20
2017-10-18T05:43:06.449Z,83.00
2017-10-18T05:45:33.959Z,82.90
2017-10-18T05:48:01.466Z,83.30
2017-10-18T05:50:28.978Z,83.20
2017-10-18T05:52:57.238Z,83.50
2017-10-18T05:55:25.523Z,83.60
2017-10-18T05:58:09.458Z,83.60
2017-10-18T06:00:36.969Z,83.60
2017-10-18T06:03:04.473Z,83.80
2017-10-18T06:05:31.985Z,83.40
2017-10-18T06:07:59.475Z,83.50
2017-10-18T06:10:26.998Z,83.30
2017-10-18T06:12:54.489Z,83.10
2017-10-18T06:15:22.007Z,83.10
2017-10-18T06:17:49.502Z,83.40
2017-10-18T06:20:17.018Z,83.20
2017-10-18T06:22:44.514Z,82.70
2017-10-18T06:25:12.026Z,82.90
2017-10-18T06:27:39.522Z,83.20
2017-10-18T06:30:07.034Z,83.10
2017-10-18T06:32:34.546Z,83.20
2017-10-18T06:35:02.823Z,83.20
2017-10-18T06:37:31.081Z,83.20
2017-10-18T06:39:58.599Z,83.20
2017-10-18T06:42:26.098Z,83.60
2017-10-18T06:44:54.378Z,83.60
2017-10-18T06:47:22.634Z,83.90
2017-10-18T06:49:50.171Z,83.80
2017-10-18T06:52:17.666Z,83.50
2017-10-18T06:54:45.178Z,83.30
2017-10-18T06:57:12.674Z,83.20
2017-10-18T06:59:40.974Z,82.80
2017-10-18T07:02:09.234Z,83.20
2017-10-18T07:04:36.754Z,83.10
2017-10-18T07:07:04.251Z,82.70
2017-10-18T07:09:31.782Z,82.50
2017-10-18T07:11:59.275Z,82.90
2017-10-18T07:14:26.789Z,82.70
2017-10-18T07:16:54.286Z,82.70
2017-10-18T07:19:21.806Z,82.80
2017-10-18T07:21:49.303Z,82.70
2017-10-18T07:24:16.822Z,82.30
2017-10-18T07:26:44.332Z,82.00
2017-10-18T07:29:11.879Z,81.80
2017-10-18T07:31:39.369Z,81.60
2017-10-18T07:34:06.895Z,82.10
2017-10-18T07:36:34.390Z,81.90
2017-10-18T07:39:01.922Z,81.90
2017-10-18T07:41:29.419Z,82.30
2017-10-18T07:43:56.929Z,81.40
2017-10-18T07:46:24.421Z,81.40
2017-10-18T07:48:52.716Z,80.70
2017-10-18T07:51:20.214Z,80.70
2017-10-18T07:53:47.725Z,81.00
2017-10-18T07:56:15.219Z,80.90
2017-10-18T07:58:42.739Z,81.20
2017-10-18T08:01:10.233Z,81.80
2017-10-18T08:03:38.514Z,82.10
2017-10-18T08:06:06.009Z,82.10
2017-10-18T08:08:34.270Z,82.50
2017-10-18T08:11:01.789Z,82.40
2017-10-18T08:13:29.281Z,82.20
2017-10-18T08:15:56.794Z,82.40
2017-10-18T08:18:24.290Z,82.40
2017-10-18T08:20:51.814Z,82.40
2017-10-18T08:23:19.306Z,80.90
2017-10-18T08:25:46.822Z,81.10
2017-10-18T08:28:14.318Z,81.60
2017-10-18T08:30:41.834Z,81.20
2017-10-18T08:33:09.334Z,81.10
2017-10-18T08:35:36.854Z,80.30
2017-10-18T08:38:04.350Z,80.20
2017-10-18T08:40:31.862Z,80.40
2017-10-18T08:42:59.369Z,81.20
2017-10-18T08:45:26.882Z,80.10
2017-10-18T08:47:54.423Z,79.90
2017-10-18T08:50:21.945Z,79.80
2017-10-18T08:52:49.439Z,79.30
2017-10-18T08:55:16.959Z,79.10
2017-10-18T08:57:44.454Z,79.80
2017-10-18T09:00:12.650Z,79.10
2017-10-18T09:02:40.262Z,78.30
2017-10-18T09:05:07.777Z,78.30
2017-10-18T09:07:35.269Z,77.90
2017-10-18T09:10:02.786Z,77.80
2017-10-18T09:12:30.278Z,77.90
2017-10-18T09:14:57.795Z,77.50
2017-10-18T09:17:25.298Z,77.60
2017-10-18T09:19:52.811Z,77.50
2017-10-18T09:22:21.070Z,77.60
2017-10-18T09:24:48.581Z,77.60
2017-10-18T09:27:16.079Z,77.20
2017-10-18T09:29:43.590Z,77.50
2017-10-18T09:32:11.082Z,77.70
2017-10-18T09:34:38.594Z,78.00
2017-10-18T09:37:06.849Z,77.50
2017-10-18T09:39:35.134Z,76.90
2017-10-18T09:42:03.398Z,76.70
2017-10-18T09:44:31.681Z,76.60
2017-10-18T09:46:59.182Z,77.20
2017-10-18T09:49:26.694Z,76.70
2017-10-18T09:51:54.185Z,76.30
2017-10-18T09:54:21.698Z,76.50
2017-10-18T09:56:49.194Z,77.10
2017-10-18T09:59:16.706Z,76.20
2017-10-18T10:01:44.974Z,75.80
2017-10-18T10:04:13.254Z,76.10
2017-10-18T10:06:41.526Z,75.60
2017-10-18T10:09:09.809Z,74.10
2017-10-18T10:11:37.306Z,74.00
2017-10-18T10:14:05.586Z,74.10
2017-10-18T10:16:33.847Z,72.80
2017-10-18T10:19:01.377Z,72.70
2017-10-18T10:21:28.874Z,72.50
2017-10-18T10:23:56.386Z,72.00
2017-10-18T10:26:23.882Z,71.20
2017-10-18T10:28:51.393Z,69.90
2017-10-18T10:31:18.885Z,69.40
2017-10-18T10:33:46.394Z,69.40
2017-10-18T10:36:14.650Z,67.20
2017-10-18T10:38:42.174Z,67.10
2017-10-18T10:41:09.665Z,66.70
2017-10-18T10:43:37.182Z,66.30
2017-10-18T10:46:04.683Z,65.50
2017-10-18T10:48:32.202Z,65.70
2017-10-18T10:50:59.693Z,64.70
2017-10-18T10:53:27.206Z,64.00
2017-10-18T10:55:54.698Z,61.40
2017-10-18T10:58:22.217Z,59.60
2017-10-18T11:00:49.710Z,58.20
2017-10-18T11:03:17.222Z,56.50
2017-10-18T11:05:44.714Z,54.80
2017-10-18T11:08:12.206Z,52.60
2017-10-18T11:10:39.722Z,51.00
2017-10-18T11:13:07.978Z,48.50
2017-10-18T11:15:35.490Z,48.50
2017-10-18T11:18:02.986Z,47.60
2017-10-18T11:20:30.497Z,45.40
2017-10-18T11:22:57.986Z,43.00
2017-10-18T11:25:25.513Z,41.30
2017-10-18T11:27:53.005Z,39.10
2017-10-18T11:30:20.520Z,37.10
2017-10-18T11:32:48.014Z,35.30
2017-10-18T11:35:15.530Z,32.60
2017-10-18T11:37:43.785Z,28.50
2017-10-18T11:40:11.302Z,28.40
2017-10-18T11:42:38.793Z,27.70
2017-10-18T11:45:06.309Z,27.20
2017-10-18T11:47:33.802Z,26.80
2017-10-18T11:50:01.317Z,27.00
2017-10-18T11:52:28.826Z,26.80
2017-10-18T11:54:56.342Z,26.70
2017-10-18T11:57:23.834Z,27.40
2017-10-18T11:59:51.348Z,28.00
2017-10-18T12:02:18.841Z,28.50
2017-10-18T12:04:47.118Z,30.40
2017-10-18T12:07:14.634Z,30.40
2017-10-18T12:09:42.145Z,31.10
2017-10-18T12:12:09.642Z,32.00
2017-10-18T12:14:37.158Z,33.00
2017-10-18T12:17:05.422Z,35.30
2017-10-18T12:19:32.944Z,34.50
2017-10-18T12:22:00.443Z,35.20
2017-10-18T12:24:27.958Z,35.90
2017-10-18T12:26:55.450Z,36.50
2017-10-18T12:29:22.963Z,37.60
2017-10-18T12:31:50.454Z,37.80
2017-10-18T12:34:17.970Z,38.30
2017-10-18T12:36:45.955Z,38.50
2017-10-18T12:39:13.470Z,38.90
2017-10-18T12:41:40.962Z,39.10
2017-10-18T12:44:08.475Z,39.60
2017-10-18T12:46:35.971Z,39.70
2017-10-18T12:49:03.486Z,39.80
2017-10-18T12:51:30.978Z,40.00
2017-10-18T12:53:59.258Z,40.10
2017-10-18T12:56:27.513Z,39.90
2017-10-18T12:58:55.026Z,39.80
2017-10-18T13:01:22.518Z,40.30
2017-10-18T13:03:50.035Z,40.30
2017-10-18T13:06:17.522Z,40.00
2017-10-18T13:08:45.040Z,39.60
2017-10-18T13:11:12.543Z,39.80
2017-10-18T13:13:40.063Z,39.70
2017-10-18T13:16:07.562Z,39.80
2017-10-18T13:18:35.074Z,39.90
2017-10-18T13:21:02.566Z,39.80
2017-10-18T13:23:30.082Z,40.40
2017-10-18T13:25:57.586Z,39.80
2017-10-18T13:28:25.101Z,39.80
2017-10-18T13:30:52.591Z,40.20
2017-10-18T13:33:20.109Z,39.80
2017-10-18T13:35:47.610Z,38.60
2017-10-18T13:38:15.122Z,38.60
2017-10-18T13:40:43.377Z,38.80
2017-10-18T13:43:10.900Z,38.80
2017-10-18T13:45:38.391Z,39.50
2017-10-18T13:48:05.910Z,38.80
2017-10-18T13:50:33.410Z,38.60
2017-10-18T13:53:00.922Z,38.80
2017-10-18T13:55:28.409Z,39.10
2017-10-18T13:57:55.923Z,39.50
2017-10-18T14:00:23.413Z,39.10
2017-10-18T14:02:50.933Z,38.30
2017-10-18T14:05:18.429Z,37.60
2017-10-18T14:07:45.945Z,37.60
2017-10-18T14:10:14.198Z,37.50
2017-10-18T14:12:41.720Z,37.50
2017-10-18T14:15:09.214Z,38.20
2017-10-18T14:17:36.726Z,39.10
2017-10-18T14:20:04.219Z,38.70
2017-10-18T14:22:31.730Z,39.30
2017-10-18T14:24:59.230Z,39.30
2017-10-18T14:27:26.742Z,40.70
2017-10-18T14:29:54.246Z,40.60
2017-10-18T14:32:21.764Z,40.70
2017-10-18T14:34:49.254Z,40.80
2017-10-18T14:37:16.766Z,41.10
2017-10-18T14:39:44.258Z,41.20
2017-10-18T14:42:11.782Z,41.70
2017-10-18T14:44:39.276Z,42.00
2017-10-18T14:47:06.790Z,41.80
2017-10-18T14:49:34.281Z,42.20
2017-10-18T14:52:01.780Z,42.10
2017-10-18T14:54:29.294Z,42.50
2017-10-18T14:56:56.790Z,42.50
2017-10-18T14:59:24.310Z,42.90
2017-10-18T15:01:51.805Z,42.50
2017-10-18T15:04:19.334Z,43.10
2017-10-18T15:06:46.826Z,42.60
2017-10-18T15:09:14.342Z,43.60
2017-10-18T15:11:41.833Z,43.40
2017-10-18T15:14:09.346Z,43.60
2017-10-18T15:16:36.847Z,43.90
2017-10-18T15:19:04.358Z,43.60
2017-10-18T15:21:31.858Z,44.10
2017-10-18T15:23:59.374Z,43.90
2017-10-18T15:26:26.882Z,43.70
2017-10-18T15:28:54.394Z,43.90
2017-10-18T15:31:21.885Z,43.90
2017-10-18T15:33:49.402Z,44.50
2017-10-18T15:36:17.657Z,44.60
2017-10-18T15:38:45.178Z,45.20
2017-10-18T15:41:12.670Z,44.90
2017-10-18T15:43:40.194Z,44.90
2017-10-18T15:46:07.685Z,44.90
2017-10-18T15:48:35.197Z,45.50
2017-10-18T15:51:02.695Z,46.70
2017-10-18T15:53:30.207Z,47.30
2017-10-18T15:55:57.697Z,48.10
2017-10-18T15:58:25.209Z,49.30
2017-10-18T16:00:52.701Z,49.30
2017-10-18T16:03:20.209Z,50.70
2017-10-18T16:05:48.466Z,51.60
2017-10-18T16:08:15.983Z,51.50
2017-10-18T16:10:43.482Z,52.10
2017-10-18T16:13:10.994Z,52.60
2017-10-18T16:15:38.486Z,53.20
2017-10-18T16:18:05.998Z,53.90
2017-10-18T16:20:33.490Z,54.30
2017-10-18T16:23:01.002Z,54.90
2017-10-18T16:25:29.263Z,55.80
2017-10-18T16:27:56.778Z,55.80
2017-10-18T16:30:24.274Z,56.10
2017-10-18T16:32:51.786Z,56.50
2017-10-18T16:35:19.282Z,57.00
2017-10-18T16:37:46.794Z,57.50
2017-10-18T16:40:14.291Z,57.80
2017-10-18T16:42:41.806Z,58.10
2017-10-18T16:45:09.303Z,58.30
2017-10-18T16:47:36.822Z,58.60
2017-10-18T16:50:04.322Z,58.90
2017-10-18T16:52:31.837Z,59.20
2017-10-18T16:54:59.334Z,59.20
2017-10-18T16:57:26.850Z,59.40
2017-10-18T16:59:54.342Z,59.60
2017-10-18T17:02:21.863Z,59.90
2017-10-18T17:04:49.366Z,59.90
2017-10-18T17:07:16.883Z,60.10
2017-10-18T17:09:44.390Z,60.50
2017-10-18T17:12:11.907Z,60.90
2017-10-18T17:14:39.410Z,61.40
2017-10-18T17:17:06.926Z,61.80
2017-10-18T17:19:34.418Z,62.00
2017-10-18T17:22:01.937Z,62.40
2017-10-18T17:24:29.429Z,63.00
2017-10-18T17:26:56.942Z,63.30
2017-10-18T17:29:25.198Z,64.20
2017-10-18T17:31:52.710Z,64.20
2017-10-18T17:34:20.202Z,64.30
2017-10-18T17:36:47.774Z,64.40
2017-10-18T17:39:15.275Z,64.60
2017-10-18T17:41:42.790Z,64.90
2017-10-18T17:44:10.286Z,65.20
2017-10-18T17:46:37.803Z,65.60
2017-10-18T17:49:05.303Z,65.70
2017-10-18T17:51:32.829Z,66.00
2017-10-18T17:54:01.096Z,66.70
2017-10-18T17:56:28.610Z,66.70
2017-10-18T17:58:56.106Z,66.80
2017-10-18T18:01:23.617Z,67.30
2017-10-18T18:03:51.117Z,67.90
2017-10-18T18:06:18.638Z,68.10
2017-10-18T18:08:46.134Z,68.50
2017-10-18T18:11:14.410Z,69.70
2017-10-18T18:13:42.670Z,69.80
2017-10-18T18:16:10.952Z,69.20
2017-10-18T18:18:39.222Z,69.40
2017-10-18T18:21:07.501Z,69.50
2017-10-18T18:23:34.998Z,69.50
2017-10-18T18:26:03.278Z,69.50
2017-10-18T18:28:31.544Z,69.30
2017-10-18T18:30:59.063Z,69.30
2017-10-18T18:33:26.554Z,69.30
2017-10-18T18:35:54.075Z,69.60
2017-10-18T18:38:21.595Z,70.00
2017-10-18T18:40:49.883Z,70.40
2017-10-18T18:43:17.400Z,70.40
2017-10-18T18:45:44.910Z,70.50
2017-10-18T18:48:12.414Z,70.80
2017-10-18T18:50:39.915Z,71.10
2017-10-18T18:53:07.458Z,71.00
2017-10-18T18:55:34.954Z,71.50
2017-10-18T18:58:02.486Z,72.30
2017-10-18T19:00:29.987Z,72.00
2017-10-18T19:02:58.275Z,71.80
2017-10-18T19:05:26.538Z,72.40
2017-10-18T19:07:54.830Z,72.70
2017-10-18T19:10:23.094Z,72.10
2017-10-18T19:12:51.379Z,72.00
2017-10-18T19:15:18.887Z,71.90
2017-10-18T19:17:46.402Z,71.90
2017-10-18T19:20:14.666Z,72.00
2017-10-18T19:22:42.972Z,72.50
2017-10-18T19:25:10.470Z,72.50
2017-10-18T19:27:38.768Z,72.60
2017-10-18T19:30:06.274Z,73.40
2017-10-18T19:32:33.798Z,72.40
2017-10-18T19:35:02.059Z,73.10
2017-10-18T19:37:29.582Z,73.10
2017-10-18T19:39:57.078Z,73.80
2017-10-18T19:42:24.610Z,74.30
2017-10-18T19:44:52.103Z,74.60
2017-10-18T19:47:19.623Z,74.30
2017-10-18T19:49:47.118Z,74.10
2017-10-18T19:52:14.646Z,73.70
2017-10-18T19:54:42.906Z,74.30
2017-10-18T19:57:11.194Z,74.10
2017-10-18T19:59:39.460Z,73.50
2017-10-18T20:02:07.747Z,73.20
2017-10-18T20:04:36.006Z,73.10
2017-10-18T20:07:04.296Z,73.60
2017-10-18T20:09:32.567Z,73.50
2017-10-18T20:12:00.852Z,73.50
2017-10-18T20:14:28.346Z,73.50
2017-10-18T20:16:55.871Z,73.60
2017-10-18T20:19:23.383Z,73.70
2017-10-18T20:21:51.670Z,73.70
2017-10-18T20:24:19.162Z,73.60
2017-10-18T20:26:46.673Z,73.50
2017-10-18T20:29:14.278Z,73.80
2017-10-18T20:31:41.885Z,74.10
2017-10-18T20:34:09.409Z,74.20
2017-10-18T20:36:36.926Z,75.00
2017-10-18T20:39:04.425Z,75.00
2017-10-18T20:41:31.953Z,74.70
2017-10-18T20:43:59.445Z,74.50
2017-10-18T20:46:26.958Z,74.50
2017-10-18T20:48:54.459Z,74.70
2017-10-18T20:51:22.741Z,74.20
2017-10-18T20:53:50.237Z,74.10
2017-10-18T20:56:17.754Z,74.10
2017-10-18T20:58:46.052Z,74.00
2017-10-18T21:01:13.566Z,74.00
2017-10-18T21:03:41.063Z,74.10
2017-10-18T21:06:08.644Z,74.10
2017-10-18T21:08:36.165Z,73.70
2017-10-18T21:11:04.463Z,74.60
2017-10-18T21:13:32.730Z,73.60
2017-10-18T21:16:01.025Z,73.70
2017-10-18T21:18:28.526Z,73.70
2017-10-18T21:20:56.066Z,73.60
2017-10-18T21:23:23.567Z,73.40
2017-10-18T21:25:51.082Z,73.80
2017-10-18T21:28:18.610Z,73.90
2017-10-18T21:30:46.930Z,73.60
2017-10-18T21:33:14.410Z,73.60
2017-10-18T21:35:41.925Z,73.60
2017-10-18T21:38:09.714Z,74.10
2017-10-18T21:40:37.226Z,74.10
2017-10-18T21:43:05.483Z,75.80
2017-10-18T21:45:33.007Z,75.80
2017-10-18T21:48:00.507Z,76.30
2017-10-18T21:50:28.786Z,76.60
2017-10-18T21:52:57.046Z,76.20
2017-10-18T21:55:24.569Z,76.10
2017-10-18T21:57:52.062Z,75.80
2017-10-18T22:00:20.342Z,76.10
2017-10-18T22:02:48.603Z,75.60
2017-10-18T22:05:16.118Z,75.50
2017-10-18T22:07:43.617Z,75.40
2017-10-18T22:10:11.135Z,75.50
2017-10-18T22:12:38.631Z,75.60
2017-10-18T22:15:06.146Z,76.00
2017-10-18T22:17:33.650Z,75.90
2017-10-18T22:20:01.167Z,76.10
2017-10-18T22:22:28.675Z,76.20
2017-10-18T22:24:56.199Z,76.00
2017-10-18T22:27:23.714Z,75.50
2017-10-18T22:29:51.239Z,75.50
2017-10-18T22:32:18.739Z,75.20
2017-10-18T22:34:46.258Z,75.40
2017-10-18T22:37:13.758Z,75.70
2017-10-18T22:39:41.279Z,74.90
2017-10-18T22:42:08.798Z,75.60
2017-10-18T22:44:36.345Z,75.80
2017-10-18T22:47:03.872Z,76.10
2017-10-18T22:49:32.160Z,76.10
2017-10-18T22:52:00.430Z,76.10
2017-10-18T22:54:28.719Z,76.60
2017-10-18T22:56:57.061Z,76.60
2017-10-18T22:59:24.591Z,76.40
2017-10-18T23:01:52.105Z,76.50
2017-10-18T23:04:19.626Z,76.30
2017-10-18T23:06:48.643Z,75.50
2017-10-18T23:09:16.958Z,75.80
2017-10-18T23:11:44.483Z,75.80
2017-10-18T23:14:12.746Z,75.10
2017-10-18T23:16:40.269Z,75.00
2017-10-18T23:19:07.767Z,75.00
2017-10-18T23:21:36.050Z,74.10
2017-10-18T23:24:04.318Z,73.60
2017-10-18T23:26:31.838Z,73.40
2017-10-18T23:28:59.330Z,73.20
2017-10-18T23:31:26.846Z,73.10
2017-10-18T23:33:54.341Z,73.20
2017-10-18T23:36:21.863Z,73.60
2017-10-18T23:38:49.375Z,73.30
2017-10-18T23:41:16.894Z,73.50
2017-10-18T23:43:44.386Z,74.40
2017-10-18T23:46:11.903Z,74.50
2017-10-18T23:48:39.394Z,74.90
2017-10-18T23:51:06.915Z,74.80
2017-10-18T23:53:34.410Z,75.90
2017-10-18T23:56:01.921Z,76.30
2017-10-18T23:58:29.415Z,77.50
